KSGF/SGF METAR and TAF weather

Enter ICAO airport designator
Station Type Date Time Source
KSGF METAR 2018/12/15 04:52 UTC NOAA

KSGF 150452Z 36011KT 1/2SM FG VV002 03/02 A3002 RMK AO2 SLP173 T00280022


Station Type Date Time Source
KSGF Decoded METAR 2018/12/15 04:52 UTC NOAA

SPRINGFIELD-BRANSON NATIONAL, MO, United States (KSGF) 37-14N 93-23W 389M
Dec 14, 2018 - 11:52 PM EST / 2018.12.15 0452 UTC
Wind: from the N (360 degrees) at 13 MPH (11 KT):0
Visibility: 1/2 mile(s):0
Sky conditions: obscured
Weather: fog
Temperature: 37.0 F (2.8 C)
Dew Point: 36.0 F (2.2 C)
Relative Humidity: 95%
Pressure (altimeter): 30.02 in. Hg (1016 hPa)
ob: KSGF 150452Z 36011KT 1/2SM FG VV002 03/02 A3002 RMK AO2 SLP173 T00280022
cycle: 5

Station Type Date Time Source
KSGF TAF 2018/12/15 01:09 UTC NOAA

TAF
AMD KSGF 150106Z 1501/1524 35016KT 1/2SM FG VV002
TEMPO 1501/1503 1/4SM FG
FM150300 36013KT 3/4SM BR VCSH OVC002
FM150900 36010KT 1SM BR OVC003
FM151300 35009KT P6SM OVC010
FM151700 35009KT P6SM SCT025


Example: see airport list